Data for 09/30/2006

Time Sea-Level Adjusted Pressure Absolute Pressure Temperature Relative Humidity Dew Point   
(mb) (inHg) (mb) (inHg) (C) (F) (%) (C) (F)
00:05 1018 30.06 848 25.04 12.8 55.1 40 -0.2 31.6
00:10 1018 30.06 848 25.04 13.3 56 40 0.1 32.2
00:15 1018 30.06 848 25.04 12.9 55.3 42 0.5 33
00:20 1018 30.06 848 25.04 12.2 53.9 45 0.6 33.1
00:25 1018 30.06 848 25.04 11.7 53 46 0.5 32.8
00:30 1018 30.06 848 25.04 11.5 52.7 46 0.4 32.8
00:35 1018 30.06 848 25.04 11.3 52.4 47 0.5 32.8
00:40 1018 30.06 848 25.04 11.3 52.4 47 0.4 32.6
00:45 1018 30.06 848 25.04 11.7 53.1 45 0.1 32.2
00:50 1018 30.06 848 25.04 12 53.6 44 0.3 32.5
00:55 1018 30.06 848 25.04 11.8 53.2 48 1.1 34
01:00 1018 30.06 848 25.04 10.7 51.3 50 0.7 33.2
01:05 1018 30.06 848 25.04 10.8 51.4 47 0.1 32.2
01:10 1018 30.06 848 25.04 11.3 52.3 45 -0 32
01:15 1018 30.06 848 25.04 11.9 53.4 42 -0.6 30.9
01:20 1018 30.06 848 25.04 12.3 54.1 43 0 32.1
01:25 1018 30.06 848 25.04 11.9 53.5 44 0.2 32.3
01:30 1018 30.06 848 25.04 11.6 52.8 46 0.5 32.8
01:35 1018 30.06 848 25.04 11.2 52.2 48 0.7 33.3
01:40 1018 30.06 848 25.04 11 51.7 47 0.1 32.2
01:45 1018 30.06 848 25.04 11.5 52.7 44 -0.3 31.5
01:50 1018 30.06 848 25.04 11.7 53 47 0.7 33.3
01:55 1018 30.06 848 25.04 11.5 52.8 42 -0.9 30.4
02:00 1018 30.06 847 25.01 12.7 54.9 38 -1.1 30
02:05 1018 30.06 847 25.01 12.9 55.3 38 -0.9 30.4
02:10 1018 30.06 847 25.01 12.3 54.2 41 -0.5 31
02:15 1018 30.06 847 25.01 11.8 53.2 47 0.8 33.5
02:20 1018 30.06 847 25.01 11 51.8 49 0.6 33.1
02:25 1018 30.06 848 25.04 10.5 50.8 51 0.7 33.3
02:30 1018 30.06 848 25.04 10.8 51.4 49 0.4 32.7
02:35 1018 30.06 847 25.01 11.3 52.3 44 -0.4 31.4
02:40 1018 30.06 847 25.01 12.5 54.4 40 -0.8 30.5
02:45 1018 30.06 848 25.04 11.9 53.4 47 1 33.8
02:50 1018 30.06 847 25.01 11.5 52.8 46 0.4 32.8
02:55 1018 30.06 847 25.01 11.4 52.5 48 0.8 33.4
03:00 1018 30.06 847 25.01 10.9 51.5 50 0.9 33.7
03:05 1018 30.06 847 25.01 10.5 51 50 0.6 33.1
03:10 1018 30.06 847 25.01 10.4 50.7 51 0.8 33.5
03:15 1018 30.06 847 25.01 10.1 50.1 53 1 33.7
03:20 1018 30.06 847 25.01 10.1 50.1 52 0.6 33.1
03:25 1018 30.06 847 25.01 10.1 50.1 53 0.8 33.5
03:30 1018 30.06 847 25.01 9.8 49.7 53 0.8 33.5
03:35 1018 30.06 847 25.01 9.7 49.5 53 0.6 33
03:40 1018 30.06 847 25.01 10 49.9 51 0.4 32.7
03:45 1018 30.06 847 25.01 10.3 50.6 49 0.1 32.2
03:50 1018 30.06 847 25.01 10.5 50.9 51 0.8 33.5
03:55 1018 30.06 847 25.01 10.1 50.2 53 0.9 33.6
04:00 1018 30.06 847 25.01 10 50.1 53 1 33.8
04:05 1018 30.06 847 25.01 10.1 50.3 50 0.3 32.6
04:10 1018 30.06 847 25.01 10.8 51.4 48 0.3 32.6
04:15 1018 30.06 847 25.01 10.4 50.8 52 1.2 34.1
04:20 1018 30.06 847 25.01 10.2 50.4 51 0.6 33.1
04:25 1018 30.06 847 25.01 10.5 50.8 51 0.7 33.2
04:30 1018 30.06 847 25.01 10.3 50.6 51 0.6 33
04:35 1018 30.06 847 25.01 10.4 50.7 52 0.9 33.7
04:40 1018 30.06 847 25.01 9.8 49.7 54 1 33.7
04:45 1018 30.06 847 25.01 9.6 49.2 55 1 33.8
04:50 1018 30.06 847 25.01 8.9 48 59 1.3 34.3
04:55 1018 30.06 847 25.01 9 48.1 54 0.3 32.6
05:00 1018 30.06 847 25.01 9.6 49.3 53 0.4 32.8
05:05 1018 30.06 847 25.01 9.9 49.8 53 0.9 33.6
05:10 1018 30.06 847 25.01 9.7 49.5 54 1 33.8
05:15 1018 30.06 847 25.01 9.4 48.9 54 0.7 33.2
05:20 1018 30.06 847 25.01 9.2 48.5 56 0.9 33.6
05:25 1018 30.06 847 25.01 9.2 48.5 54 0.5 32.9
05:30 1018 30.06 847 25.01 9 48.2 53 0 32.1
05:35 1018 30.06 847 25.01 9.8 49.6 51 0.2 32.4
05:40 1018 30.06 847 25.01 9.9 49.9 51 0.4 32.7
05:45 1018 30.06 847 25.01 10.5 50.9 50 0.6 33.1
05:50 1018 30.06 847 25.01 10 49.9 53 0.7 33.3
05:55 1018 30.06 847 25.01 9.5 49.2 54 0.8 33.5
06:00 1018 30.06 847 25.01 9.1 48.3 55 0.6 33.1
06:05 1018 30.06 847 25.01 9.8 49.6 49 -0.4 31.3
06:10 1018 30.06 847 25.01 10.5 50.8 51 0.8 33.4
06:15 1018 30.06 847 25.01 9.5 49 56 1.2 34.1
06:20 1018 30.06 847 25.01 8.5 47.4 58 0.8 33.4
06:25 1018 30.06 847 25.01 8 46.4 62 1.1 34
06:30 1018 30.06 847 25.01 7.6 45.6 62 0.7 33.2
06:35 1018 30.06 847 25.01 8.3 46.9 58 0.4 32.7
06:40 1018 30.06 847 25.01 9 48.2 55 0.3 32.6
06:45 1017 30.03 847 25.01 9.1 48.3 55 0.4 32.7
06:50 1017 30.03 847 25.01 9.1 48.3 55 0.5 32.8
06:55 1018 30.06 847 25.01 8.7 47.6 55 0.1 32.1
07:00 1018 30.06 847 25.01 9 48.2 51 -0.6 30.9
07:05 1018 30.06 847 25.01 9.9 49.9 50 -0 32
07:10 1018 30.06 847 25.01 10 49.9 49 -0.1 31.7
07:15 1018 30.06 847 25.01 9.7 49.5 49 -0.3 31.4
07:20 1018 30.06 847 25.01 10.2 50.4 47 -0.6 30.9
07:25 1018 30.06 847 25.01 9.9 49.8 51 0.3 32.5
07:30 1018 30.06 847 25.01 9.3 48.7 52 -0.1 31.8
07:35 1018 30.06 847 25.01 9.2 48.5 51 -0.3 31.5
07:40 1018 30.06 847 25.01 9.4 48.9 52 0 32.1
07:45 1018 30.06 847 25.01 9.1 48.4 52 -0.3 31.5
07:50 1018 30.06 847 25.01 9.5 49.1 50 -0.4 31.3
07:55 1018 30.06 847 25.01 9.7 49.5 49 -0.3 31.4
08:00 1018 30.06 847 25.01 10.1 50.2 48 -0.5 31.2
08:05 1018 30.06 847 25.01 10.4 50.7 48 -0.1 31.7
08:10 1018 30.06 847 25.01 10.3 50.5 50 0.4 32.8
08:15 1018 30.06 847 25.01 10.5 50.9 47 -0.2 31.6
08:20 1018 30.06 847 25.01 10.8 51.4 47 0 32
08:25 1017 30.03 847 25.01 10.8 51.4 47 0.1 32.1
08:30 1017 30.03 847 25.01 10.7 51.2 49 0.3 32.6
08:35 1017 30.03 847 25.01 10.4 50.7 51 0.7 33.2
08:40 1018 30.06 847 25.01 10.3 50.5 52 0.9 33.6
08:45 1018 30.06 847 25.01 10.2 50.4 49 0.1 32.1
08:50 1018 30.06 847 25.01 10.7 51.3 47 -0.1 31.9
08:55 1018 30.06 847 25.01 11.4 52.5 46 0.2 32.4
09:00 1018 30.06 847 25.01 11.9 53.5 44 0.1 32.1
09:05 1018 30.06 847 25.01 12.7 54.8 42 0.1 32.1
09:10 1018 30.06 847 25.01 12.7 54.9 44 0.8 33.5
09:15 1018 30.06 847 25.01 13 55.5 41 0.3 32.5
09:20 1018 30.06 847 25.01 13.5 56.3 43 1.3 34.3
09:25 1018 30.06 847 25.01 14.5 58.2 38 0.5 32.9
09:30 1018 30.06 847 25.01 15.2 59.4 34 -0.3 31.5
09:35 1018 30.06 847 25.01 16 60.8 34 0.1 32.1
09:40 1018 30.06 847 25.01 17 62.5 32 0.2 32.4
09:45 1018 30.06 847 25.01 17.3 63.1 33 0.8 33.5
09:50 1018 30.06 847 25.01 17.5 63.5 31 0.3 32.5
09:55 1018 30.06 847 25.01 17.5 63.5 32 0.7 33.3
10:00 1018 30.06 847 25.01 17.9 64.2 32 1.2 34.2
10:05 1018 30.06 847 25.01 18.1 64.6 32 1.2 34.2
10:10 1018 30.06 847 25.01 18.1 64.7 32 1.5 34.6
10:15 1018 30.06 847 25.01 18.5 65.3 31 1.3 34.4
10:20 1018 30.06 847 25.01 19 66.1 31 1.7 35.1
10:25 1018 30.06 847 25.01 18.9 66.1 31 1.4 34.4
10:30 1018 30.06 847 25.01 18.9 66.1 30 1 33.9
10:35 1018 30.06 847 25.01 19.3 66.7 30 1.3 34.3
10:40 1018 30.06 847 25.01 19.4 66.9 27 0 32.1
10:45 1018 30.06 847 25.01 19.1 66.4 28 0.2 32.3
10:50 1018 30.06 847 25.01 18.7 65.7 29 0.5 32.8
10:55 1018 30.06 847 25.01 19.7 67.4 26 -0.3 31.5
11:00 1018 30.06 847 25.01 20 68 26 0.1 32.2
11:05 1018 30.06 847 25.01 20.2 68.3 25 -0.3 31.4
11:10 1018 30.06 847 25.01 20.2 68.3 26 0.4 32.8
11:15 1018 30.06 847 25.01 19.8 67.6 25 -0.8 30.6
11:20 1018 30.06 847 25.01 20.3 68.6 22 -1.8 28.7
11:25 1018 30.06 847 25.01 21 69.7 22 -1.2 29.9
11:30 1017 30.03 847 25.01 21.3 70.4 21 -2 28.4
11:35 1017 30.03 847 25.01 21.3 70.4 20 -2.1 28.3
11:40 1017 30.03 847 25.01 21.5 70.6 22 -0.9 30.3
11:45 1017 30.03 846 24.98 21.3 70.3 22 -1.2 29.8
11:50 1017 30.03 846 24.98 21.5 70.6 22 -0.8 30.6
11:55 1017 30.03 846 24.98 21.2 70.2 22 -0.9 30.4
12:00 1017 30.03 846 24.98 21.9 71.5 22 -0.5 31
12:05 1017 30.03 846 24.98 22.6 72.7 23 0.5 32.9
12:10 1017 30.03 846 24.98 23.3 74 21 -0.2 31.6
12:15 1017 30.03 846 24.98 23.7 74.7 20 -0.2 31.7
12:20 1017 30.03 846 24.98 24.1 75.3 20 0 32.1
12:25 1017 30.03 846 24.98 24.5 76.2 20 0.4 32.7
12:30 1017 30.03 846 24.98 25.2 77.4 19 -0.2 31.7
12:35 1017 30.03 846 24.98 25.2 77.4 16 -2.3 27.8
12:40 1017 30.03 846 24.98 25.2 77.4 13 -4.7 23.5
12:45 1017 30.03 846 24.98 24.9 76.8 12 -6.1 20.9
12:50 1017 30.03 846 24.98 24.5 76.2 13 -5.9 21.3
12:55 1016 30 846 24.98 24.8 76.6 13 -5.3 22.4
13:00 1016 30 846 24.98 24.8 76.7 13 -5.7 21.7
13:05 1016 30 846 24.98 24.7 76.5 13 -5.7 21.7
13:10 1016 30 845 24.95 25.3 77.5 12 -5.5 22
13:15 1016 30 845 24.95 25.6 78.1 13 -4.6 23.7
13:20 1016 30 845 24.95 25.4 77.8 14 -4 24.7
13:25 1016 30 845 24.95 25.8 78.4 12 -5.3 22.4
13:30 1016 30 845 24.95 26.2 79.1 12 -5.2 22.7
13:35 1016 30 845 24.95 25.7 78.3 12 -5.2 22.7
13:40 1016 30 845 24.95 25.5 77.8 11 -6.5 20.3
13:45 1016 30 845 24.95 25.6 78.1 12 -5.7 21.8
13:50 1016 30 845 24.95 26.1 79 13 -4.5 23.9
13:55 1016 30 845 24.95 26.2 79.2 11 -6 21.2
14:00 1016 30 845 24.95 26 78.7 10 -7.6 18.3
14:05 1016 30 845 24.95 25.4 77.7 11 -7 19.4
14:10 1016 30 845 24.95 25.6 78.2 11 -7.1 19.3
14:15 1015 29.97 845 24.95 25.7 78.3 10 -7.6 18.3
14:20 1015 29.97 845 24.95 25.7 78.3 11 -7.2 19.1
14:25 1015 29.97 844 24.92 26 78.8 11 -6.8 19.8
14:30 1015 29.97 844 24.92 25.7 78.2 10 -7.4 18.7
14:35 1015 29.97 844 24.92 25.7 78.2 11 -7.1 19.3
14:40 1015 29.97 844 24.92 25.5 77.9 10 -7.7 18.1
14:45 1015 29.97 844 24.92 25.2 77.3 11 -7.1 19.3
14:50 1015 29.97 844 24.92 25.4 77.8 11 -7.5 18.5
14:55 1015 29.97 844 24.92 25.6 78 10 -7.5 18.4
15:00 1015 29.97 844 24.92 26.1 78.9 11 -7 19.4
15:05 1015 29.97 844 24.92 26 78.8 10 -7.5 18.5
15:10 1015 29.97 844 24.92 25.9 78.6 10 -7.3 18.9
15:15 1015 29.97 844 24.92 26 78.9 11 -6.3 20.6
15:20 1015 29.97 844 24.92 26 78.8 11 -6.2 20.8
15:25 1015 29.97 844 24.92 25.9 78.6 11 -7.1 19.2
15:30 1015 29.97 844 24.92 25.7 78.3 11 -6.5 20.3
15:35 1014 29.94 844 24.92 25.8 78.5 11 -6.6 20.1
15:40 1014 29.94 844 24.92 25.7 78.2 11 -6.2 20.8
15:45 1014 29.94 844 24.92 25.2 77.4 12 -6.4 20.4
15:50 1014 29.94 843 24.89 25 77 11 -6.9 19.6
15:55 1014 29.94 843 24.89 24.8 76.7 12 -6.5 20.2
16:00 1014 29.94 843 24.89 25.4 77.7 11 -6.5 20.3
16:05 1014 29.94 843 24.89 25.6 78.1 11 -7 19.4
16:10 1014 29.94 843 24.89 25.2 77.3 11 -7.2 19.1
16:15 1014 29.94 843 24.89 25.5 78 11 -6.5 20.2
16:20 1014 29.94 843 24.89 25.9 78.6 11 -6.4 20.5
16:25 1014 29.94 843 24.89 25.6 78 10 -7.8 18
16:30 1014 29.94 843 24.89 25.6 78.1 11 -6.8 19.7
16:35 1014 29.94 843 24.89 25.5 78 11 -7.4 18.6
16:40 1014 29.94 843 24.89 25.6 78 10 -8 17.7
16:45 1014 29.94 843 24.89 25.5 77.9 11 -6.9 19.7
16:50 1014 29.94 843 24.89 25.7 78.2 11 -7.2 19
16:55 1014 29.94 843 24.89 25.9 78.7 11 -7.1 19.2
17:00 1014 29.94 843 24.89 26 78.9 11 -6.8 19.7
17:05 1014 29.94 843 24.89 25.8 78.5 11 -6.9 19.6
17:10 1013 29.91 843 24.89 25.8 78.4 10 -7.5 18.5
17:15 1013 29.91 843 24.89 25.7 78.2 11 -6.8 19.7
17:20 1013 29.91 843 24.89 25.7 78.3 11 -6.8 19.7
17:25 1013 29.91 843 24.89 25.6 78 11 -7.3 18.8
17:30 1013 29.91 843 24.89 25.7 78.2 11 -6.4 20.4
17:35 1013 29.91 843 24.89 25.8 78.4 11 -6.6 20.1
17:40 1013 29.91 843 24.89 25.7 78.3 12 -5.7 21.7
17:45 1013 29.91 842 24.86 25.5 77.8 11 -6.7 19.9
17:50 1013 29.91 842 24.86 25.3 77.5 12 -5.9 21.3
17:55 1013 29.91 842 24.86 25 77 12 -6 21.2
18:00 1013 29.91 842 24.86 24.8 76.6 12 -6.6 20.2
18:05 1013 29.91 842 24.86 24.4 76 12 -6.2 20.8
18:10 1013 29.91 842 24.86 24.4 76 13 -5.9 21.4
18:15 1013 29.91 842 24.86 24.4 76 13 -5.2 22.7
18:20 1013 29.91 842 24.86 24.1 75.3 14 -5.3 22.4
18:25 1013 29.91 842 24.86 23.8 74.8 14 -5.6 22
18:30 1013 29.91 842 24.86 23.6 74.5 14 -5.6 22
18:35 1013 29.91 842 24.86 23.5 74.2 13 -5.9 21.4
18:40 1013 29.91 842 24.86 23.3 73.9 14 -5.9 21.4
18:45 1013 29.91 842 24.86 22.8 73 15 -5.4 22.2
18:50 1013 29.91 842 24.86 22.3 72.2 15 -5.6 21.9
18:55 1013 29.91 842 24.86 21.9 71.5 14 -6.3 20.6
19:00 1013 29.91 842 24.86 21.9 71.4 14 -6.4 20.5
19:05 1013 29.91 842 24.86 21.8 71.3 15 -5.6 21.9
19:10 1013 29.91 842 24.86 21.3 70.4 15 -6.2 20.9
19:15 1013 29.91 842 24.86 21.5 70.6 14 -7.1 19.2
19:20 1013 29.91 842 24.86 21.5 70.7 15 -6.1 21
19:25 1013 29.91 842 24.86 20.8 69.5 21 -2.1 28.2
19:30 1013 29.91 842 24.86 19.7 67.5 20 -3.9 25
19:35 1013 29.91 842 24.86 19.2 66.6 23 -2.5 27.5
19:40 1013 29.91 842 24.86 18.7 65.7 21 -3.9 25
19:45 1013 29.91 842 24.86 18.3 64.9 23 -2.9 26.8
19:50 1013 29.91 842 24.86 17.8 64.1 22 -4.1 24.6
19:55 1013 29.91 842 24.86 17.5 63.6 24 -3 26.6
20:00 1013 29.91 842 24.86 17.2 63 23 -4 24.9
20:05 1013 29.91 842 24.86 17.2 62.9 22 -4.6 23.7
20:10 1013 29.91 842 24.86 17.5 63.5 22 -4.6 23.7
20:15 1013 29.91 842 24.86 17.3 63.1 23 -3.7 25.3
20:20 1013 29.91 842 24.86 16.9 62.4 23 -4.5 23.9
20:25 1013 29.91 842 24.86 16.9 62.3 23 -4.2 24.5
20:30 1013 29.91 842 24.86 16.7 62 24 -4.1 24.6
20:35 1013 29.91 842 24.86 16.6 61.9 22 -4.8 23.3
20:40 1013 29.91 842 24.86 17.2 63 21 -5.2 22.6
20:45 1013 29.91 842 24.86 17.7 63.8 22 -4 24.8
20:50 1013 29.91 842 24.86 17.8 64.1 21 -4.5 24
20:55 1013 29.91 842 24.86 17.6 63.6 23 -3.8 25.2
21:00 1013 29.91 842 24.86 17 62.6 24 -3.6 25.6
21:05 1013 29.91 842 24.86 17.2 62.9 23 -4.2 24.4
21:10 1013 29.91 842 24.86 17.6 63.7 23 -3.8 25.2
21:15 1013 29.91 842 24.86 17.8 64.1 24 -3.2 26.3
21:20 1013 29.91 842 24.86 17.8 64 24 -3.2 26.3
21:25 1013 29.91 842 24.86 17.9 64.2 23 -3.2 26.3
21:30 1013 29.91 842 24.86 17.7 63.9 24 -3 26.7
21:35 1013 29.91 842 24.86 17.5 63.5 25 -2.8 27
21:40 1013 29.91 842 24.86 17.2 62.9 25 -3.2 26.3
21:45 1013 29.91 842 24.86 17.1 62.9 25 -3 26.5
21:50 1013 29.91 842 24.86 17 62.5 25 -3.3 26.1
21:55 1013 29.91 842 24.86 17.2 63 24 -3.4 26
22:00 1013 29.91 842 24.86 17.2 62.9 24 -3.4 25.8
22:05 1013 29.91 842 24.86 17.3 63.1 24 -3.5 25.7
22:10 1013 29.91 842 24.86 17.3 63.2 24 -3.3 26.1
22:15 1013 29.91 842 24.86 17.2 63 24 -3.4 25.9
22:20 1013 29.91 842 24.86 17.2 63 24 -3.6 25.5
22:25 1013 29.91 842 24.86 18.3 65 20 -4.8 23.4
22:30 1013 29.91 842 24.86 18.8 65.8 20 -4.6 23.7
22:35 1013 29.91 842 24.86 19.2 66.5 19 -4.9 23.2
22:40 1013 29.91 842 24.86 19.2 66.5 19 -4.7 23.5
22:45 1013 29.91 842 24.86 19 66.3 18 -5.5 22.1
22:50 1013 29.91 842 24.86 19.1 66.5 18 -5.4 22.4
22:55 1013 29.91 842 24.86 19.1 66.5 19 -5.2 22.6
23:00 1013 29.91 842 24.86 19.3 66.7 18 -5.3 22.5
23:05 1013 29.91 842 24.86 19.2 66.6 18 -5.5 22.1
23:10 1013 29.91 842 24.86 19.3 66.7 18 -5.4 22.3
23:15 1013 29.91 842 24.86 19.3 66.7 18 -5.6 21.9
23:20 1013 29.91 842 24.86 19.6 67.2 17 -5.9 21.4
23:25 1013 29.91 842 24.86 19.5 67 18 -5.6 21.9
23:30 1013 29.91 842 24.86 19.4 66.8 17 -5.9 21.3
23:35 1013 29.91 842 24.86 19.3 66.7 18 -5.4 22.2
23:40 1013 29.91 842 24.86 19 66.3 18 -5.6 22
23:45 1013 29.91 842 24.86 19 66.1 18 -6 21.3
23:50 1013 29.91 842 24.86 19 66.3 18 -5.8 21.6
23:55 1013 29.91 842 24.86 18.9 66.1 18 -5.7 21.7
24:00 1013 29.91 842 24.86 18.7 65.7 19 -5.2 22.6